createdAt,value
2022-11-29T00:01:56.710Z,101496.66
2022-11-29T00:07:17.132Z,101502.63
2022-11-29T00:12:37.793Z,101501.72
2022-11-29T00:17:58.190Z,101506.81
2022-11-29T00:23:19.014Z,101501.78
2022-11-29T00:28:39.612Z,101505.16
2022-11-29T00:34:02.895Z,101501.81
2022-11-29T00:39:23.368Z,101507.75
2022-11-29T00:44:44.339Z,101499.25
2022-11-29T00:50:06.704Z,101504.34
2022-11-29T00:55:27.115Z,101512.78
2022-11-29T01:00:47.813Z,101506.00
2022-11-29T01:06:12.074Z,101503.50
2022-11-29T01:11:33.136Z,101509.47
2022-11-29T01:16:53.574Z,101500.06
2022-11-29T01:22:14.120Z,101509.47
2022-11-29T01:27:35.047Z,101514.53
2022-11-29T01:32:55.383Z,101524.75
2022-11-29T01:38:16.217Z,101519.66
2022-11-29T01:44:00.107Z,101527.34
2022-11-29T01:49:26.277Z,101529.88
2022-11-29T01:54:49.736Z,101534.97
2022-11-29T02:00:14.610Z,101537.56
2022-11-29T02:05:38.951Z,101540.19
2022-11-29T02:11:16.537Z,101536.81
2022-11-29T02:17:10.862Z,101534.31
2022-11-29T02:22:49.504Z,101539.41
2022-11-29T02:28:30.090Z,101544.47
2022-11-29T02:34:35.354Z,101537.75
2022-11-29T02:40:15.635Z,101548.81
2022-11-29T02:46:08.688Z,101546.16
2022-11-29T02:51:56.872Z,101546.97
2022-11-29T02:57:29.411Z,101555.47
2022-11-29T03:03:15.388Z,101566.47
2022-11-29T03:08:54.651Z,101569.97
2022-11-29T03:14:24.440Z,101573.22
2022-11-29T03:20:06.412Z,101576.66
2022-11-29T03:25:37.351Z,101584.34
2022-11-29T03:31:16.126Z,101586.88
2022-11-29T03:37:03.697Z,101596.25
2022-11-29T03:42:32.734Z,101608.94
2022-11-29T03:48:01.729Z,101603.09
2022-11-29T03:53:34.634Z,101599.72
2022-11-29T03:59:03.251Z,101609.09
2022-11-29T04:04:57.597Z,101614.97
2022-11-29T04:10:49.221Z,101625.09
2022-11-29T04:16:29.004Z,101627.66
2022-11-29T04:21:53.531Z,101634.47
2022-11-29T04:27:40.314Z,101631.97
2022-11-29T04:33:35.335Z,101631.06
2022-11-29T04:39:04.874Z,101633.59
2022-11-29T04:44:45.212Z,101642.94
2022-11-29T04:50:20.191Z,101648.06
2022-11-29T04:56:08.460Z,101652.38
2022-11-29T05:01:50.832Z,101653.19
2022-11-29T05:07:25.269Z,101665.91
2022-11-29T05:13:00.697Z,101676.16
2022-11-29T05:18:30.309Z,101677.00
2022-11-29T05:23:58.750Z,101687.16
2022-11-29T05:29:34.149Z,101683.78
2022-11-29T05:35:25.826Z,101689.75
2022-11-29T05:41:09.718Z,101697.34
2022-11-29T05:46:54.285Z,101707.56
2022-11-29T05:52:24.492Z,101713.47
2022-11-29T05:57:57.007Z,101724.50
2022-11-29T06:03:39.553Z,101727.13
2022-11-29T06:09:14.054Z,101736.53
2022-11-29T06:14:57.029Z,101736.50
2022-11-29T06:20:23.515Z,101737.34
2022-11-29T06:26:29.290Z,101746.72
2022-11-29T06:32:16.434Z,101750.97
2022-11-29T06:37:50.547Z,101761.94
2022-11-29T06:43:11.614Z,101775.50
2022-11-29T06:48:45.061Z,101785.59
2022-11-29T06:54:27.326Z,101785.56
2022-11-29T07:00:17.289Z,101794.00
2022-11-29T07:05:38.418Z,101789.81
2022-11-29T07:11:00.410Z,101797.44
2022-11-29T07:16:27.087Z,101794.06
2022-11-29T07:22:26.529Z,101802.59
2022-11-29T07:28:01.516Z,101811.09
2022-11-29T07:33:41.934Z,101817.13
2022-11-29T07:39:33.063Z,101819.81
2022-11-29T07:44:59.704Z,101820.00
2022-11-29T07:50:20.999Z,101828.56
2022-11-29T07:55:41.800Z,101835.38
2022-11-29T08:01:03.510Z,101838.88
2022-11-29T08:06:26.876Z,101838.09
2022-11-29T08:11:48.789Z,101843.34
2022-11-29T08:17:09.272Z,101844.22
2022-11-29T08:22:30.364Z,101838.31
2022-11-29T08:27:51.667Z,101843.34
2022-11-29T08:33:12.308Z,101834.88
2022-11-29T08:38:32.772Z,101836.66
2022-11-29T08:43:53.523Z,101846.03
2022-11-29T08:49:14.375Z,101846.88
2022-11-29T08:54:34.752Z,101863.09
2022-11-29T08:59:55.572Z,101871.63
2022-11-29T09:05:16.135Z,101886.13
2022-11-29T09:10:38.673Z,101883.91
2022-11-29T09:15:59.339Z,101900.25
2022-11-29T09:21:19.975Z,101897.84
2022-11-29T09:26:42.120Z,101902.16
2022-11-29T09:32:03.015Z,101906.41
2022-11-29T09:37:23.714Z,101913.25
2022-11-29T09:42:54.955Z,101921.78
2022-11-29T09:48:34.135Z,101920.06
2022-11-29T09:54:26.105Z,101921.66
2022-11-29T09:59:51.293Z,101911.56
2022-11-29T10:05:23.779Z,101921.91
2022-11-29T10:10:47.589Z,101916.19
2022-11-29T10:16:19.520Z,101924.00
2022-11-29T10:21:43.675Z,101934.25
2022-11-29T10:27:21.131Z,101938.44
2022-11-29T10:32:45.279Z,101943.41
2022-11-29T10:38:29.645Z,101943.41
2022-11-29T10:43:48.056Z,101942.66
2022-11-29T10:49:28.727Z,101941.88
2022-11-29T10:54:53.778Z,101945.41
2022-11-29T11:00:15.225Z,101944.78
2022-11-29T11:05:36.047Z,101949.16
2022-11-29T11:11:01.744Z,101939.03
2022-11-29T11:16:25.715Z,101946.75
2022-11-29T11:21:46.002Z,101954.50
2022-11-29T11:27:06.466Z,101943.66
2022-11-29T11:32:27.212Z,101947.16
2022-11-29T11:37:57.546Z,101950.56
2022-11-29T11:43:21.741Z,101953.16
2022-11-29T11:48:42.698Z,101959.91
2022-11-29T11:54:03.527Z,101958.84
2022-11-29T11:59:26.729Z,101960.47
2022-11-29T12:04:48.087Z,101957.97
2022-11-29T12:10:19.028Z,101962.25
2022-11-29T12:15:42.717Z,101965.81
2022-11-29T12:21:13.181Z,101965.88
2022-11-29T12:26:58.561Z,101975.28
2022-11-29T12:32:42.994Z,101978.63
2022-11-29T12:38:21.329Z,101989.72
2022-11-29T12:43:51.134Z,101982.94
2022-11-29T12:49:44.741Z,101987.88
2022-11-29T12:55:50.304Z,101990.34
2022-11-29T13:01:37.665Z,101993.72
2022-11-29T13:07:29.648Z,101985.09
2022-11-29T13:13:03.058Z,101992.69
2022-11-29T13:18:44.224Z,101996.09
2022-11-29T13:24:19.180Z,102003.84
2022-11-29T13:29:40.421Z,102004.88
2022-11-29T13:35:18.024Z,102008.81
2022-11-29T13:40:45.205Z,102013.00
2022-11-29T13:46:23.939Z,102017.22
2022-11-29T13:51:45.876Z,102018.06
2022-11-29T13:57:09.232Z,102012.88
2022-11-29T14:02:31.712Z,102018.78
2022-11-29T14:08:23.280Z,102017.03
2022-11-29T14:13:49.340Z,102021.25
2022-11-29T14:19:10.067Z,102023.84
2022-11-29T14:24:35.311Z,102016.97
2022-11-29T14:29:56.067Z,102026.34
2022-11-29T14:35:43.605Z,102028.84
2022-11-29T14:41:19.011Z,102033.88
2022-11-29T14:46:39.598Z,102040.69
2022-11-29T14:52:19.017Z,102044.00
2022-11-29T14:57:58.523Z,102039.69
2022-11-29T15:03:37.505Z,102041.47
2022-11-29T15:09:05.776Z,102044.00
2022-11-29T15:14:46.287Z,102054.97
2022-11-29T15:20:22.420Z,102060.91
2022-11-29T15:25:48.481Z,102060.09
2022-11-29T15:31:13.112Z,102066.78
2022-11-29T15:36:34.592Z,102075.44
2022-11-29T15:42:10.498Z,102076.47
2022-11-29T15:47:31.520Z,102093.63
2022-11-29T15:52:59.840Z,102090.31
2022-11-29T15:58:21.419Z,102085.38
2022-11-29T16:03:45.471Z,102091.50
2022-11-29T16:09:12.384Z,102094.03
2022-11-29T16:14:33.104Z,102105.03
2022-11-29T16:20:25.051Z,102112.50
2022-11-29T16:26:21.455Z,102117.50
2022-11-29T16:31:42.468Z,102127.59
2022-11-29T16:37:06.564Z,102130.91
2022-11-29T16:42:33.425Z,102130.84
2022-11-29T16:47:58.789Z,102131.66
2022-11-29T16:53:37.647Z,102135.84
2022-11-29T16:59:26.234Z,102153.66
2022-11-29T17:04:44.025Z,102148.59
2022-11-29T17:10:07.744Z,102144.34
2022-11-29T17:15:28.502Z,102158.81
2022-11-29T17:20:49.043Z,102158.75
2022-11-29T17:26:09.709Z,102171.56
2022-11-29T17:31:31.448Z,102168.06
2022-11-29T17:36:51.842Z,102181.72
2022-11-29T17:42:12.379Z,102184.19
2022-11-29T17:47:33.462Z,102185.09
2022-11-29T17:52:53.735Z,102190.25
2022-11-29T17:58:14.459Z,102192.03
2022-11-29T18:03:40.108Z,102194.63
2022-11-29T18:09:02.071Z,102194.63
2022-11-29T18:14:23.790Z,102200.56
2022-11-29T18:19:44.973Z,102210.66
2022-11-29T18:25:36.960Z,102207.19
2022-11-29T18:30:47.411Z,102216.59
2022-11-29T18:36:11.121Z,102229.56
2022-11-29T18:41:32.607Z,102224.38
2022-11-29T18:46:53.330Z,102231.16
2022-11-29T18:52:15.001Z,102235.34
2022-11-29T18:57:35.685Z,102236.22
2022-11-29T19:02:56.373Z,102243.91
2022-11-29T19:08:17.103Z,102242.94
2022-11-29T19:13:38.458Z,102251.44
2022-11-29T19:19:00.377Z,102254.78
2022-11-29T19:24:21.532Z,102254.72
2022-11-29T19:29:42.255Z,102263.06
2022-11-29T19:35:03.320Z,102261.31
2022-11-29T19:40:23.950Z,102262.88
2022-11-29T19:45:44.529Z,102266.16
2022-11-29T19:51:07.221Z,102266.91
2022-11-29T19:56:29.547Z,102266.81
2022-11-29T20:01:50.670Z,102282.06
2022-11-29T20:07:11.191Z,102281.16
2022-11-29T20:12:32.855Z,102282.03
2022-11-29T20:17:53.596Z,102284.53
2022-11-29T20:23:14.470Z,102280.97
2022-11-29T20:28:35.862Z,102284.28
2022-11-29T20:33:57.502Z,102273.16
2022-11-29T20:39:48.958Z,102285.06
2022-11-29T20:45:12.111Z,102295.28
2022-11-29T20:50:33.039Z,102307.16
2022-11-29T20:55:53.698Z,102300.34
2022-11-29T21:01:14.437Z,102302.91
2022-11-29T21:06:39.140Z,102297.78
2022-11-29T21:11:59.835Z,102297.78
2022-11-29T21:17:20.526Z,102302.91
2022-11-29T21:22:46.890Z,102301.25
2022-11-29T21:28:13.321Z,102302.00
2022-11-29T21:33:34.272Z,102295.19
2022-11-29T21:38:55.387Z,102290.97
2022-11-29T21:44:16.356Z,102296.09
2022-11-29T21:49:36.756Z,102299.47
2022-11-29T21:54:57.118Z,102308.00
2022-11-29T22:00:19.452Z,102316.47
2022-11-29T22:05:40.728Z,102313.13
2022-11-29T22:11:09.891Z,102316.47
2022-11-29T22:16:30.655Z,102324.19
2022-11-29T22:21:53.669Z,102319.94
2022-11-29T22:27:14.053Z,102329.31
2022-11-29T22:32:34.725Z,102323.38
2022-11-29T22:37:55.971Z,102334.47
2022-11-29T22:43:16.495Z,102331.16
2022-11-29T22:48:39.113Z,102334.59
2022-11-29T22:54:01.751Z,102336.28
2022-11-29T22:59:22.246Z,102340.59
2022-11-29T23:04:42.805Z,102351.59
2022-11-29T23:10:03.752Z,102366.91
2022-11-29T23:15:24.110Z,102376.25
2022-11-29T23:20:44.791Z,102368.59
2022-11-29T23:26:08.331Z,102374.63
2022-11-29T23:31:29.593Z,102383.13
2022-11-29T23:36:53.161Z,102390.78
2022-11-29T23:42:14.046Z,102386.50
2022-11-29T23:47:34.811Z,102387.28
2022-11-29T23:52:56.489Z,102380.41
2022-11-29T23:58:16.806Z,102389.72
